Airfield :
LOGIN :

Register | Disclaimer

   EN    FR    IT 

 










Legend :    VFR   Marginal VFR   IFR   Intensive IFR   Very Intensive IFR
Visi :
Ceiling :
>= 8 km
>= 3000ft
5 to 8 km
1000 to 3000 ft
1500m to 5 km
500 to 1000 ft
800 to 1500m
200 to 500 ft
< 800m
< 200 ft
Symbols :   Thunderstorms  Fog  Heavy snow  Heavy precipitations  Wind > 20 kt
SIGMETs :     Misc.  Thunderstorms  Icing  Turbulence  Mountain Waves  Volcanic Ashes







- Airport Elevation : 34 ft
- IATA code : BLK
- Download approach charts


EGNH - Blackpool

CURRENT METAR :
  • 171920Z 26018KT 9999 FEW026 SCT048 09/05 Q1025

EXPIRED METARs :
  • 171850Z 26018KT 9999 FEW027 SCT048 09/05 Q1025
  • 171820Z 26017KT 9999 FEW027 BKN045 09/04 Q1025
  • 171750Z 27017KT 9999 FEW017 SCT031 09/03 Q1025
  • 171720Z 26016KT 9999 VCSH FEW009 SCT032 09/04 Q1026
  • 171650Z 26016KT 9999 VCSH SCT014 BKN030 09/04 Q1026

TAF TAF EGNH
Valid from the 17 at 18:00 until the 17 at 23:00 UTC


171656Z 1718/1723 28015KT 9999 SCT025
PROB30
TEMPO 1718/1723 27018G28KT 9000 -SHRA
ATIS : +44 1253 343 434 (x8315)
No reported NOTAMs for that airfield.



MET'MAP, your aeronautical weather chart ! - Copyright ORBIFLY December 2007 - Disclaimer

ORBIFLY MET'MAP TEAM :

Programming & Development : Alexandra Zaïnal
Concept & Development : Baudouin d'Aumeries
Co-Development & Prog : Marc-Olivier Méhu
Technical & hardware support : Manuel Goepfert

Contact : metmap@orbifly.com




SOURCES & CREDITS :

   NOAA